createdAt,value
2018-04-30T00:01:49.452Z,31.75
2018-04-30T00:04:20.550Z,34.00
2018-04-30T00:06:50.817Z,33.50
2018-04-30T00:09:21.262Z,32.75
2018-04-30T00:11:52.443Z,32.75
2018-04-30T00:14:22.663Z,34.25
2018-04-30T00:16:53.095Z,32.75
2018-04-30T00:19:23.192Z,33.25
2018-04-30T00:21:53.492Z,33.50
2018-04-30T00:24:24.001Z,32.00
2018-04-30T00:26:54.188Z,32.75
2018-04-30T00:29:24.557Z,30.00
2018-04-30T00:31:55.201Z,31.00
2018-04-30T00:34:25.439Z,30.75
2018-04-30T00:36:55.575Z,31.50
2018-04-30T00:39:26.101Z,30.00
2018-04-30T00:41:56.265Z,32.25
2018-04-30T00:44:26.468Z,34.00
2018-04-30T00:46:57.260Z,35.25
2018-04-30T00:49:27.421Z,35.00
2018-04-30T00:51:57.752Z,35.50
2018-04-30T00:54:36.893Z,35.75
2018-04-30T00:57:07.117Z,34.00
2018-04-30T00:59:38.008Z,35.75
2018-04-30T01:02:08.489Z,34.50
2018-04-30T01:04:38.707Z,34.00
2018-04-30T01:07:09.254Z,35.25
2018-04-30T01:09:39.594Z,34.00
2018-04-30T01:12:10.138Z,35.75
2018-04-30T01:14:40.463Z,35.25
2018-04-30T01:17:11.010Z,35.25
2018-04-30T01:19:42.229Z,35.50
2018-04-30T01:22:12.481Z,36.25
2018-04-30T01:24:42.860Z,34.25
2018-04-30T01:27:13.244Z,35.00
2018-04-30T01:29:43.638Z,35.00
2018-04-30T01:32:14.578Z,33.25
2018-04-30T01:34:45.158Z,34.75
2018-04-30T01:37:15.407Z,35.00
2018-04-30T01:39:45.516Z,34.75
2018-04-30T01:42:15.748Z,32.75
2018-04-30T01:44:46.102Z,35.25
2018-04-30T01:47:16.776Z,34.50
2018-04-30T01:49:47.304Z,32.00
2018-04-30T01:52:17.838Z,32.25
2018-04-30T01:54:48.523Z,32.25
2018-04-30T01:57:18.964Z,33.75
2018-04-30T01:59:49.241Z,33.25
2018-04-30T02:02:19.301Z,32.00
2018-04-30T02:04:49.515Z,32.75
2018-04-30T02:07:27.475Z,29.75
2018-04-30T02:12:55.289Z,32.00
2018-04-30T02:15:26.404Z,30.75
2018-04-30T02:17:58.366Z,32.50
2018-04-30T02:20:28.626Z,31.50
2018-04-30T02:23:00.230Z,32.00
2018-04-30T02:25:31.209Z,31.75
2018-04-30T02:28:02.598Z,32.75
2018-04-30T02:30:33.070Z,33.00
2018-04-30T02:33:04.103Z,32.25
2018-04-30T02:35:39.067Z,33.00
2018-04-30T02:38:14.224Z,33.00
2018-04-30T02:40:45.317Z,34.25
2018-04-30T02:43:16.145Z,32.75
2018-04-30T02:45:46.843Z,33.75
2018-04-30T02:48:17.129Z,33.50
2018-04-30T02:50:47.657Z,32.00
2018-04-30T02:53:18.533Z,34.75
2018-04-30T02:55:49.415Z,31.00
2018-04-30T02:58:19.651Z,32.50
2018-04-30T03:00:50.109Z,29.50
2018-04-30T03:03:20.279Z,30.25
2018-04-30T03:05:50.450Z,30.75
2018-04-30T03:08:21.007Z,32.00
2018-04-30T03:10:51.750Z,31.00
2018-04-30T03:13:21.870Z,31.25
2018-04-30T03:15:52.181Z,28.75
2018-04-30T03:18:22.488Z,29.50
2018-04-30T03:20:52.568Z,29.25
2018-04-30T03:23:22.826Z,28.50
2018-04-30T03:25:53.222Z,28.75
2018-04-30T03:28:23.395Z,25.25
2018-04-30T03:30:55.207Z,28.50
2018-04-30T03:33:25.390Z,28.00
2018-04-30T03:35:55.822Z,27.75
2018-04-30T03:40:51.928Z,24.75
2018-04-30T03:43:22.187Z,24.75
2018-04-30T03:45:54.836Z,23.25
2018-04-30T03:48:24.978Z,24.75
2018-04-30T03:50:55.995Z,22.75
2018-04-30T03:53:26.257Z,20.25
2018-04-30T03:55:56.985Z,17.00
2018-04-30T03:58:27.139Z,21.00
2018-04-30T04:02:10.872Z,20.25
2018-04-30T04:06:56.229Z,22.00
2018-04-30T04:09:26.722Z,19.25
2018-04-30T04:14:31.761Z,19.00
2018-04-30T04:17:02.245Z,22.00
2018-04-30T04:19:33.943Z,19.25
2018-04-30T04:22:13.198Z,20.50
2018-04-30T04:24:43.600Z,20.00
2018-04-30T04:27:15.164Z,19.75
2018-04-30T04:29:45.459Z,21.25
2018-04-30T04:32:16.192Z,23.50
2018-04-30T04:34:46.763Z,20.00
2018-04-30T04:37:17.009Z,22.25
2018-04-30T04:39:48.202Z,20.00
2018-04-30T04:42:18.545Z,20.25
2018-04-30T04:44:49.018Z,23.75
2018-04-30T04:47:19.996Z,22.75
2018-04-30T04:49:50.551Z,20.00
2018-04-30T04:52:20.934Z,20.50
2018-04-30T04:54:51.543Z,22.50
2018-04-30T04:57:21.978Z,21.75
2018-04-30T04:59:52.411Z,19.25
2018-04-30T05:02:23.506Z,18.00
2018-04-30T05:04:54.205Z,16.50
2018-04-30T05:07:25.250Z,14.75
2018-04-30T05:09:56.308Z,11.00
2018-04-30T05:12:26.805Z,11.00
2018-04-30T05:14:57.458Z,8.25
2018-04-30T05:17:28.417Z,7.25
2018-04-30T05:20:02.871Z,6.00
2018-04-30T05:22:34.097Z,5.50
2018-04-30T05:25:05.066Z,5.25
2018-04-30T05:27:35.621Z,5.75
2018-04-30T05:30:08.094Z,6.00
2018-04-30T05:32:38.866Z,5.00
2018-04-30T05:35:10.139Z,3.00
2018-04-30T05:37:40.664Z,4.50
2018-04-30T05:40:10.932Z,3.00
2018-04-30T05:42:42.258Z,2.25
2018-04-30T05:45:40.785Z,2.00
2018-04-30T05:48:11.636Z,2.75
2018-04-30T05:51:06.422Z,2.25
2018-04-30T05:53:37.429Z,2.00
2018-04-30T05:56:07.829Z,2.00
2018-04-30T05:58:41.218Z,2.75
2018-04-30T06:01:12.645Z,1.75
2018-04-30T06:03:44.546Z,2.00
2018-04-30T06:06:17.441Z,2.00
2018-04-30T06:08:48.171Z,2.00
2018-04-30T06:11:19.779Z,2.00
2018-04-30T06:13:51.002Z,2.00
2018-04-30T06:16:21.819Z,2.00
2018-04-30T06:18:54.866Z,1.75
2018-04-30T06:21:26.632Z,2.00
2018-04-30T06:23:58.305Z,2.25
2018-04-30T06:26:30.230Z,2.00
2018-04-30T06:29:01.528Z,2.50
2018-04-30T06:31:33.065Z,2.00
2018-04-30T06:34:03.465Z,2.00
2018-04-30T06:36:34.462Z,2.00
2018-04-30T06:39:08.493Z,2.00
2018-04-30T06:41:39.431Z,2.00
2018-04-30T06:44:10.102Z,2.00
2018-04-30T06:46:40.459Z,2.00
2018-04-30T06:49:11.047Z,2.00
2018-04-30T06:51:51.476Z,2.00
2018-04-30T06:54:23.670Z,2.00
2018-04-30T06:56:54.083Z,2.00
2018-04-30T06:59:25.843Z,3.00
2018-04-30T07:02:04.366Z,2.00
2018-04-30T07:04:39.458Z,2.00
2018-04-30T07:07:10.449Z,2.00
2018-04-30T07:09:41.630Z,2.00
2018-04-30T07:12:12.420Z,2.00
2018-04-30T07:14:43.072Z,2.00
2018-04-30T07:17:15.140Z,3.00
2018-04-30T07:19:45.831Z,3.50
2018-04-30T07:22:16.111Z,4.00
2018-04-30T07:24:46.796Z,3.00
2018-04-30T07:27:17.466Z,5.00
2018-04-30T07:29:48.219Z,2.00
2018-04-30T07:32:18.923Z,3.00
2018-04-30T07:34:49.236Z,2.00
2018-04-30T07:37:26.992Z,2.00
2018-04-30T07:39:57.336Z,2.75
2018-04-30T07:42:29.290Z,2.00
2018-04-30T07:45:00.637Z,5.00
2018-04-30T07:52:32.371Z,2.75
2018-04-30T07:55:02.634Z,2.25
2018-04-30T07:57:35.087Z,2.75
2018-04-30T08:00:10.519Z,2.00
2018-04-30T08:02:46.539Z,2.00
2018-04-30T08:05:20.730Z,2.00
2018-04-30T08:08:08.681Z,2.00
2018-04-30T08:10:45.549Z,2.00
2018-04-30T08:13:23.758Z,1.00
2018-04-30T08:15:58.373Z,2.00
2018-04-30T08:18:28.530Z,1.25
2018-04-30T08:21:00.104Z,1.00
2018-04-30T08:23:36.422Z,2.00
2018-04-30T08:26:06.850Z,1.00
2018-04-30T08:28:37.271Z,1.75
2018-04-30T08:31:07.811Z,1.00
2018-04-30T08:33:37.987Z,2.00
2018-04-30T08:36:09.921Z,1.00
2018-04-30T08:38:40.403Z,1.25
2018-04-30T08:41:11.037Z,1.00
2018-04-30T08:43:42.381Z,1.00
2018-04-30T08:46:13.245Z,1.00
2018-04-30T08:48:43.937Z,1.00
2018-04-30T08:51:14.590Z,1.25
2018-04-30T08:53:44.860Z,1.75
2018-04-30T08:56:15.925Z,1.25
2018-04-30T08:58:54.801Z,1.00
2018-04-30T09:01:29.243Z,1.00
2018-04-30T09:04:01.155Z,1.00
2018-04-30T09:06:35.360Z,1.00
2018-04-30T09:09:06.709Z,1.50
2018-04-30T09:11:50.751Z,2.00
2018-04-30T09:14:29.152Z,1.00
2018-04-30T09:17:05.996Z,1.00
2018-04-30T09:19:42.122Z,2.00
2018-04-30T09:22:15.376Z,2.00
2018-04-30T09:24:47.089Z,1.00
2018-04-30T09:27:17.686Z,1.75
2018-04-30T09:29:50.094Z,1.00
2018-04-30T09:32:21.951Z,1.00
2018-04-30T09:34:52.274Z,1.00
2018-04-30T09:37:26.986Z,1.75
2018-04-30T09:39:58.028Z,2.00
2018-04-30T09:42:29.786Z,1.00
2018-04-30T09:45:03.756Z,1.00
2018-04-30T09:47:35.788Z,1.00
2018-04-30T09:50:09.018Z,1.00
2018-04-30T09:52:50.690Z,1.00
2018-04-30T10:00:43.398Z,2.00
2018-04-30T10:03:22.421Z,1.00
2018-04-30T10:05:55.034Z,1.00
2018-04-30T10:08:27.585Z,1.50
2018-04-30T10:14:08.938Z,1.00
2018-04-30T10:16:50.961Z,1.00
2018-04-30T10:19:25.115Z,1.00
2018-04-30T10:21:56.914Z,1.25
2018-04-30T10:24:27.999Z,1.25
2018-04-30T10:27:00.024Z,1.00
2018-04-30T10:29:31.197Z,1.25
2018-04-30T10:32:03.489Z,2.00
2018-04-30T10:34:35.199Z,2.00
2018-04-30T10:37:09.353Z,1.50
2018-04-30T10:39:40.705Z,1.00
2018-04-30T10:42:12.383Z,1.75
2018-04-30T10:44:50.698Z,1.50
2018-04-30T10:47:21.941Z,1.00
2018-04-30T10:50:01.220Z,2.00
2018-04-30T10:55:45.132Z,2.00
2018-04-30T10:58:18.785Z,1.75
2018-04-30T11:03:55.667Z,1.75
2018-04-30T11:06:37.714Z,2.00
2018-04-30T11:09:15.064Z,2.00
2018-04-30T11:11:48.316Z,2.00
2018-04-30T11:14:18.934Z,1.75
2018-04-30T11:16:50.833Z,1.75
2018-04-30T11:19:25.643Z,1.75
2018-04-30T11:22:06.650Z,1.75
2018-04-30T11:24:37.947Z,1.00
2018-04-30T11:27:09.014Z,2.00
2018-04-30T11:29:39.748Z,3.00
2018-04-30T11:32:12.533Z,1.00
2018-04-30T11:34:44.436Z,1.75
2018-04-30T11:37:46.029Z,1.00
2018-04-30T11:40:19.985Z,2.00
2018-04-30T11:42:54.849Z,1.00
2018-04-30T11:45:26.099Z,1.25
2018-04-30T11:48:01.697Z,1.00
2018-04-30T11:50:35.010Z,2.00
2018-04-30T11:53:11.138Z,1.75
2018-04-30T11:56:01.833Z,1.00
2018-04-30T11:58:52.494Z,1.00
2018-04-30T12:01:38.795Z,2.00
2018-04-30T12:04:13.095Z,1.75
2018-04-30T12:06:52.558Z,1.00
2018-04-30T12:09:23.626Z,1.50
2018-04-30T12:11:54.699Z,3.00
2018-04-30T12:14:29.382Z,1.00
2018-04-30T12:17:10.002Z,2.00
2018-04-30T12:19:41.828Z,2.00
2018-04-30T12:22:13.855Z,2.00
2018-04-30T12:24:45.852Z,1.00
2018-04-30T12:27:17.952Z,1.00
2018-04-30T12:29:53.376Z,1.00
2018-04-30T12:32:27.781Z,3.00
2018-04-30T12:35:03.340Z,2.75
2018-04-30T12:37:39.076Z,1.00
2018-04-30T12:40:10.687Z,2.00
2018-04-30T12:42:43.625Z,2.00
2018-04-30T12:45:18.248Z,1.00
2018-04-30T12:47:48.663Z,1.00
2018-04-30T12:50:23.776Z,2.00
2018-04-30T12:53:05.055Z,1.00
2018-04-30T12:55:44.293Z,0.00
2018-04-30T12:58:20.629Z,-0.25
2018-04-30T13:00:52.811Z,1.00
2018-04-30T13:03:23.439Z,0.25
2018-04-30T13:05:55.593Z,0.50
2018-04-30T13:08:35.314Z,0.00
2018-04-30T13:11:08.838Z,1.00
2018-04-30T13:14:16.807Z,1.00
2018-04-30T13:16:50.130Z,0.25
2018-04-30T13:22:04.007Z,0.00
2018-04-30T13:24:34.313Z,1.00
2018-04-30T13:27:04.537Z,0.00
2018-04-30T13:29:36.858Z,0.00
2018-04-30T13:32:11.118Z,1.00
2018-04-30T13:34:41.571Z,1.50
2018-04-30T13:37:12.049Z,1.00
2018-04-30T13:39:42.217Z,1.00
2018-04-30T13:42:13.061Z,1.00
2018-04-30T13:44:44.129Z,1.00
2018-04-30T13:47:27.667Z,1.00
2018-04-30T13:50:04.982Z,0.00
2018-04-30T13:55:23.646Z,0.75
2018-04-30T13:57:55.494Z,1.00
2018-04-30T14:00:26.144Z,0.50
2018-04-30T14:03:05.847Z,3.25
2018-04-30T14:05:36.835Z,0.25
2018-04-30T14:08:07.851Z,0.00
2018-04-30T14:10:39.167Z,3.00
2018-04-30T14:13:10.978Z,1.00
2018-04-30T14:15:42.367Z,0.00
2018-04-30T14:18:18.584Z,0.25
2018-04-30T14:20:52.666Z,1.00
2018-04-30T14:23:23.538Z,0.75
2018-04-30T14:25:53.915Z,1.00
2018-04-30T14:28:25.810Z,0.50
2018-04-30T14:30:58.494Z,1.00
2018-04-30T14:33:29.540Z,1.25
2018-04-30T14:36:01.464Z,1.00
2018-04-30T14:38:34.539Z,1.00
2018-04-30T14:41:19.972Z,1.00
2018-04-30T14:44:01.110Z,1.00
2018-04-30T14:46:35.184Z,1.00
2018-04-30T14:49:09.068Z,1.00
2018-04-30T14:51:40.683Z,1.00
2018-04-30T14:54:11.466Z,1.25
2018-04-30T14:56:43.715Z,1.00
2018-04-30T14:59:19.877Z,1.00
2018-04-30T15:01:53.115Z,0.75
2018-04-30T15:04:30.851Z,0.75
2018-04-30T15:10:09.017Z,2.00
2018-04-30T15:12:40.625Z,0.25
2018-04-30T15:15:16.019Z,0.75
2018-04-30T15:17:47.284Z,0.25
2018-04-30T15:20:18.290Z,0.00
2018-04-30T15:22:48.972Z,1.00
2018-04-30T15:25:21.949Z,0.25
2018-04-30T15:27:53.278Z,0.00
2018-04-30T15:30:25.436Z,1.00
2018-04-30T15:33:01.965Z,0.50
2018-04-30T15:35:34.341Z,0.50
2018-04-30T15:38:16.522Z,0.00
2018-04-30T15:40:50.217Z,1.00
2018-04-30T15:43:20.530Z,0.00
2018-04-30T15:45:51.067Z,0.00
2018-04-30T15:48:26.579Z,5.50
2018-04-30T15:53:40.619Z,0.75
2018-04-30T15:56:11.090Z,0.00
2018-04-30T15:58:46.545Z,0.00
2018-04-30T16:01:18.161Z,0.00
2018-04-30T16:03:50.232Z,1.00
2018-04-30T16:06:21.193Z,1.00
2018-04-30T16:08:55.583Z,0.00
2018-04-30T16:11:26.724Z,0.00
2018-04-30T16:13:57.010Z,0.00
2018-04-30T16:16:28.463Z,0.00
2018-04-30T16:19:04.632Z,0.00
2018-04-30T16:21:37.476Z,0.00
2018-04-30T16:24:08.486Z,2.00
2018-04-30T16:26:39.154Z,1.75
2018-04-30T16:29:11.255Z,0.00
2018-04-30T16:31:59.137Z,0.00
2018-04-30T16:34:36.420Z,0.00
2018-04-30T16:37:07.804Z,1.00
2018-04-30T16:39:39.171Z,0.00
2018-04-30T16:42:10.596Z,0.00
2018-04-30T16:44:41.976Z,0.00
2018-04-30T16:47:12.635Z,0.00
2018-04-30T16:49:44.056Z,0.50
2018-04-30T16:52:15.324Z,0.00
2018-04-30T16:54:45.980Z,0.00
2018-04-30T16:57:20.011Z,0.00
2018-04-30T16:59:50.827Z,0.00
2018-04-30T17:02:22.822Z,0.25
2018-04-30T17:04:53.209Z,0.00
2018-04-30T17:07:26.271Z,1.00
2018-04-30T17:09:56.744Z,1.00
2018-04-30T17:12:26.927Z,0.75
2018-04-30T17:14:57.144Z,0.25
2018-04-30T17:17:33.610Z,0.00
2018-04-30T17:20:09.507Z,0.00
2018-04-30T17:22:40.294Z,0.25
2018-04-30T17:25:11.489Z,2.00
2018-04-30T17:27:43.219Z,0.25
2018-04-30T17:30:17.144Z,5.50
2018-04-30T17:32:47.614Z,1.00
2018-04-30T17:35:17.868Z,0.25
2018-04-30T17:37:49.387Z,0.00
2018-04-30T17:40:21.217Z,0.00
2018-04-30T17:43:01.618Z,2.00
2018-04-30T17:45:32.694Z,0.00
2018-04-30T17:48:03.964Z,0.00
2018-04-30T17:50:34.734Z,0.00
2018-04-30T17:53:44.767Z,1.00
2018-04-30T17:56:15.290Z,0.00
2018-04-30T17:58:45.896Z,0.00
2018-04-30T18:01:17.071Z,0.25
2018-04-30T18:03:50.787Z,0.00
2018-04-30T18:06:21.596Z,0.00
2018-04-30T18:08:53.408Z,0.25
2018-04-30T18:11:23.884Z,0.00
2018-04-30T18:13:54.217Z,0.00
2018-04-30T18:16:25.569Z,0.00
2018-04-30T18:18:57.439Z,0.00
2018-04-30T18:21:28.573Z,0.00
2018-04-30T18:26:41.362Z,0.00
2018-04-30T18:29:15.164Z,0.00
2018-04-30T18:31:46.192Z,0.00
2018-04-30T18:34:16.727Z,0.00
2018-04-30T18:36:49.559Z,0.00
2018-04-30T18:39:25.657Z,1.50
2018-04-30T18:42:01.733Z,0.00
2018-04-30T18:47:38.390Z,0.00
2018-04-30T18:50:31.499Z,0.00
2018-04-30T18:53:03.744Z,0.00
2018-04-30T18:55:37.196Z,0.00
2018-04-30T18:58:08.088Z,0.00
2018-04-30T19:00:45.101Z,0.00
2018-04-30T19:03:26.678Z,0.00
2018-04-30T19:06:03.310Z,0.00
2018-04-30T19:08:45.668Z,0.00
2018-04-30T19:11:17.152Z,0.00
2018-04-30T19:13:54.592Z,0.00
2018-04-30T19:16:28.237Z,0.00
2018-04-30T19:19:00.379Z,0.00
2018-04-30T19:21:31.468Z,0.00
2018-04-30T19:24:02.940Z,0.00
2018-04-30T19:26:33.318Z,2.00
2018-04-30T19:29:05.639Z,0.00
2018-04-30T19:31:36.443Z,0.00
2018-04-30T19:34:06.877Z,0.00
2018-04-30T19:36:38.868Z,0.00
2018-04-30T19:39:11.905Z,0.00
2018-04-30T19:41:44.638Z,0.00
2018-04-30T19:44:15.179Z,0.00
2018-04-30T19:46:49.424Z,0.00
2018-04-30T19:49:22.683Z,0.00
2018-04-30T19:51:53.941Z,0.00
2018-04-30T19:54:27.385Z,1.00
2018-04-30T19:57:07.211Z,0.00
2018-04-30T19:59:39.268Z,0.00
2018-04-30T20:02:11.780Z,0.00
2018-04-30T20:04:42.962Z,0.00
2018-04-30T20:07:13.748Z,1.00
2018-04-30T20:09:45.366Z,0.75
2018-04-30T20:12:17.252Z,1.00
2018-04-30T20:14:48.552Z,1.00
2018-04-30T20:17:18.941Z,1.00
2018-04-30T20:19:50.041Z,0.75
2018-04-30T20:22:21.068Z,1.00
2018-04-30T20:24:52.580Z,0.75
2018-04-30T20:27:23.204Z,0.75
2018-04-30T20:30:00.573Z,0.25
2018-04-30T20:32:33.343Z,6.75
2018-04-30T20:35:11.093Z,3.25
2018-04-30T20:37:50.659Z,1.00
2018-04-30T20:40:20.971Z,1.00
2018-04-30T20:42:52.995Z,0.00
2018-04-30T20:45:24.487Z,0.50
2018-04-30T20:47:56.067Z,0.00
2018-04-30T20:50:27.365Z,1.00
2018-04-30T20:52:57.882Z,1.00
2018-04-30T20:55:29.684Z,1.00
2018-04-30T20:58:01.507Z,0.00
2018-04-30T21:00:32.236Z,1.00
2018-04-30T21:03:02.592Z,1.00
2018-04-30T21:08:24.983Z,2.50
2018-04-30T21:10:55.705Z,1.00
2018-04-30T21:13:26.149Z,0.50
2018-04-30T21:15:56.780Z,1.00
2018-04-30T21:18:27.491Z,1.00
2018-04-30T21:20:58.042Z,1.00
2018-04-30T21:23:29.214Z,1.50
2018-04-30T21:26:00.175Z,1.00
2018-04-30T21:28:30.478Z,1.00
2018-04-30T21:31:01.418Z,1.00
2018-04-30T21:33:34.075Z,1.00
2018-04-30T21:36:04.687Z,1.50
2018-04-30T21:38:36.510Z,3.00
2018-04-30T21:41:06.486Z,3.00
2018-04-30T21:43:36.806Z,1.00
2018-04-30T21:46:07.730Z,1.00
2018-04-30T21:48:38.074Z,2.00
2018-04-30T21:51:08.731Z,2.50
2018-04-30T21:53:44.531Z,3.00
2018-04-30T21:56:14.721Z,1.50
2018-04-30T21:58:45.008Z,1.00
2018-04-30T22:01:15.616Z,1.00
2018-04-30T22:03:47.779Z,1.00
2018-04-30T22:06:19.923Z,1.00
2018-04-30T22:08:50.629Z,1.00
2018-04-30T22:11:21.446Z,0.00
2018-04-30T22:13:52.575Z,1.00
2018-04-30T22:16:23.228Z,0.00
2018-04-30T22:18:53.680Z,1.00
2018-04-30T22:21:25.180Z,1.00
2018-04-30T22:23:55.674Z,0.00
2018-04-30T22:26:26.287Z,0.00
2018-04-30T22:29:13.359Z,0.25
2018-04-30T22:31:44.663Z,1.00
2018-04-30T22:34:15.143Z,0.25
2018-04-30T22:36:46.124Z,0.00
2018-04-30T22:39:18.487Z,0.50
2018-04-30T22:41:49.769Z,1.00
2018-04-30T22:44:20.487Z,0.00
2018-04-30T22:46:53.585Z,0.50
2018-04-30T22:49:25.150Z,0.00
2018-04-30T22:51:57.136Z,0.00
2018-04-30T22:54:29.674Z,0.50
2018-04-30T22:57:00.287Z,1.00
2018-04-30T22:59:31.932Z,0.00
2018-04-30T23:02:07.739Z,0.25
2018-04-30T23:04:38.501Z,1.00
2018-04-30T23:07:10.283Z,1.00
2018-04-30T23:09:40.709Z,2.50
2018-04-30T23:12:11.244Z,0.00
2018-04-30T23:14:41.579Z,0.75
2018-04-30T23:17:14.245Z,0.00
2018-04-30T23:19:44.444Z,0.00
2018-04-30T23:22:16.734Z,0.00
2018-04-30T23:24:47.054Z,0.75
2018-04-30T23:27:17.438Z,0.25
2018-04-30T23:29:51.473Z,0.00
2018-04-30T23:32:22.883Z,0.00
2018-04-30T23:34:57.426Z,0.00
2018-04-30T23:37:28.298Z,0.00
2018-04-30T23:39:59.285Z,0.00
2018-04-30T23:42:35.160Z,0.00
2018-04-30T23:45:08.862Z,0.00
2018-04-30T23:47:39.378Z,0.00
2018-04-30T23:50:10.058Z,0.00
2018-04-30T23:52:42.254Z,0.00
2018-04-30T23:55:12.718Z,0.00
2018-04-30T23:57:45.627Z,0.25
